Terminal Aerodrome Forecast
Issued by NWS

Home | Current Version | Previous Version | Text Only | Print | Product List | Glossary Off
Versions: 1 2 3 4 5 6 7 8 9 10 11 12 13 14 15 16 17 18 19

000
FTUS43 KMPX 302323
TAFRNH
TAF
KRNH 302323Z 3100/3124 19006KT P6SM SKC
     FM310500 18005KT 4SM BR OVC005
     FM311500 20011G18KT P6SM BKN010
     FM311600 20014G22KT P6SM SKC=

USA.gov is the U.S. government's official web portal to all federal, state and local government web resources and services.